Time;durP1;ratioP1;P1;durP2;ratioP2;P2;SDS_P1;SDS_P2;PMS_P1;PMS_P2;Temp;Humidity;BMP_temperature;BMP_pressure;BME280_temperature;BME280_humidity;BME280_pressure;Samples;Min_cycle;Max_cycle;Signal;HPM_P1;HPM_P2
2023/03/29 00:02:32;;;;;;;14.97;6.83;;;;;;;0.93;67.94;100220.74;124754;1099;102204;-74
2023/03/29 00:05:04;;;;;;;11.68;5.92;;;;;;;0.91;68.51;100220.64;124777;1099;104258;-74
2023/03/29 00:07:35;;;;;;;14.70;6.30;;;;;;;0.92;67.95;100230.19;124721;1099;104304;-74
2023/03/29 00:10:09;;;;;;;13.43;5.80;;;;;;;0.89;69.06;100230.86;124669;1099;104025;-73
2023/03/29 00:12:41;;;;;;;16.65;7.12;;;;;;;0.88;68.41;100236.81;124337;1099;101912;-74
2023/03/29 00:15:13;;;;;;;12.13;6.00;;;;;;;0.86;68.46;100240.09;124249;1099;104192;-74
2023/03/29 00:17:44;;;;;;;14.07;6.80;;;;;;;0.85;68.49;100246.92;124784;1099;101830;-74
2023/03/29 00:20:16;;;;;;;11.63;6.30;;;;;;;0.83;68.75;100224.38;124695;1099;104274;-74
2023/03/29 00:22:50;;;;;;;14.40;6.83;;;;;;;0.82;68.38;100226.05;124761;1099;104226;-74
2023/03/29 00:25:21;;;;;;;15.00;6.03;;;;;;;0.80;69.02;100245.72;124661;1099;104206;-75
2023/03/29 00:27:53;;;;;;;11.93;6.00;;;;;;;0.79;68.44;100237.86;124735;1099;110904;-75
2023/03/29 00:30:24;;;;;;;17.17;6.63;;;;;;;0.79;68.20;100236.16;124751;1099;104338;-74
2023/03/29 00:32:55;;;;;;;15.00;6.60;;;;;;;0.77;69.07;100237.75;124738;1098;104180;-75
2023/03/29 00:35:27;;;;;;;14.50;6.63;;;;;;;0.74;68.90;100242.70;124771;1099;102118;-74
2023/03/29 00:37:58;;;;;;;15.23;7.40;;;;;;;0.73;68.89;100248.64;124711;1099;104213;-73
2023/03/29 00:40:29;;;;;;;12.97;6.27;;;;;;;0.73;68.33;100238.31;124330;1099;102278;-74
2023/03/29 00:43:01;;;;;;;14.23;6.67;;;;;;;0.71;68.91;100243.37;124743;1099;104169;-73
2023/03/29 00:45:34;;;;;;;14.80;6.80;;;;;;;0.70;68.37;100245.84;124807;1099;102409;-73
2023/03/29 00:48:07;;;;;;;13.10;5.83;;;;;;;0.67;69.64;100251.71;124833;1099;104681;-72
2023/03/29 00:50:41;;;;;;;17.33;7.10;;;;;;;0.66;68.93;100246.44;124806;1099;104054;-74
2023/03/29 00:53:17;;;;;;;15.63;7.03;;;;;;;0.63;69.38;100256.55;124819;1099;104232;-73
2023/03/29 00:55:52;;;;;;;13.93;6.83;;;;;;;0.64;68.99;100248.91;124677;1099;101896;-74
2023/03/29 00:58:28;;;;;;;15.37;6.90;;;;;;;0.62;69.00;100252.16;124307;1099;120370;-73
2023/03/29 01:01:03;;;;;;;15.30;7.20;;;;;;;0.60;69.92;100243.42;124282;1099;104223;-72
2023/03/29 01:03:40;;;;;;;15.73;7.50;;;;;;;0.58;69.36;100245.89;124727;1099;102131;-72
2023/03/29 01:06:14;;;;;;;14.10;6.53;;;;;;;0.58;69.67;100258.80;124781;1099;104182;-73
2023/03/29 01:08:51;;;;;;;15.67;7.13;;;;;;;0.56;68.99;100259.47;124744;1099;104676;-73
2023/03/29 01:11:27;;;;;;;16.35;7.50;;;;;;;0.56;69.20;100251.72;124649;1099;104169;-72
2023/03/29 01:14:02;;;;;;;16.83;7.23;;;;;;;0.54;68.63;100261.94;124670;1099;104271;-72
2023/03/29 01:16:37;;;;;;;16.57;7.73;;;;;;;0.54;69.15;100269.69;124669;1099;104258;-72
2023/03/29 01:19:14;;;;;;;14.80;6.87;;;;;;;0.52;69.53;100264.41;124319;1099;110917;-73
2023/03/29 01:21:50;;;;;;;16.83;7.37;;;;;;;0.53;69.05;100273.05;124760;1099;104208;-72
2023/03/29 01:24:46;;;;;;;20.03;7.80;;;;;;;0.51;69.58;100269.47;124707;1099;104172;-72
2023/03/29 01:27:22;;;;;;;18.30;8.17;;;;;;;0.50;68.47;100265.11;124707;1099;104095;-73
2023/03/29 01:29:59;;;;;;;16.97;7.73;;;;;;;0.48;68.93;100277.91;124309;1099;104132;-73
2023/03/29 01:32:35;;;;;;;17.87;9.07;;;;;;;0.46;68.53;100271.72;124262;1099;104259;-73
2023/03/29 01:35:13;;;;;;;14.97;7.27;;;;;;;0.43;69.50;100293.84;124808;1099;101970;-73
2023/03/29 01:37:48;;;;;;;19.07;8.93;;;;;;;0.43;69.25;100280.94;124784;1099;105509;-73
2023/03/29 01:40:20;;;;;;;17.47;8.20;;;;;;;0.41;69.20;100279.94;124297;1099;104240;-73
2023/03/29 01:42:58;;;;;;;15.37;7.70;;;;;;;0.41;68.63;100291.14;124767;1099;101932;-72
2023/03/29 01:45:36;;;;;;;19.70;8.40;;;;;;;0.41;69.19;100274.77;124770;1099;104201;-72
2023/03/29 01:48:15;;;;;;;17.33;8.13;;;;;;;0.39;69.16;100281.48;124365;1099;104216;-72
2023/03/29 01:50:50;;;;;;;17.37;8.30;;;;;;;0.37;69.49;100275.33;124772;1099;102122;-73
2023/03/29 01:53:28;;;;;;;19.33;9.00;;;;;;;0.38;68.66;100270.27;124731;1099;104201;-72
2023/03/29 01:56:06;;;;;;;17.90;8.90;;;;;;;0.35;69.08;100281.27;124321;1099;104332;-73
2023/03/29 01:58:43;;;;;;;17.73;8.40;;;;;;;0.35;69.29;100277.80;124770;1099;104272;-73
2023/03/29 02:01:20;;;;;;;17.37;8.20;;;;;;;0.32;68.30;100270.72;124719;1099;104169;-73
2023/03/29 02:03:55;;;;;;;16.57;8.60;;;;;;;0.33;68.90;100284.54;124677;1099;101939;-74
2023/03/29 02:06:30;;;;;;;18.93;8.57;;;;;;;0.32;68.74;100285.31;124684;1099;101900;-73
2023/03/29 02:09:03;;;;;;;16.97;7.90;;;;;;;0.30;68.30;100290.36;124815;1099;104178;-72
2023/03/29 02:11:35;;;;;;;16.67;7.25;;;;;;;0.29;68.85;100298.00;124737;1099;104204;-73
2023/03/29 02:14:08;;;;;;;17.47;8.07;;;;;;;0.30;67.88;100290.36;124813;1099;101829;-73
2023/03/29 02:16:40;;;;;;;17.15;8.25;;;;;;;0.28;68.08;100293.61;124768;1099;101919;-73
2023/03/29 02:19:14;;;;;;;18.23;8.40;;;;;;;0.26;68.29;100296.08;124703;1099;104284;-73
2023/03/29 02:21:53;;;;;;;18.10;7.83;;;;;;;0.25;68.27;100304.63;124726;1099;104204;-72
2023/03/29 02:24:26;;;;;;;16.47;7.03;;;;;;;0.28;68.20;100304.84;124723;1099;101852;-73
2023/03/29 02:26:58;;;;;;;14.77;7.67;;;;;;;0.17;67.85;100286.00;124316;1099;104179;-73
2023/03/29 02:29:30;;;;;;;17.73;7.43;;;;;;;0.27;68.36;100312.48;124744;1099;104214;-72
2023/03/29 02:32:09;;;;;;;17.27;8.00;;;;;;;0.26;68.38;100306.40;124782;1099;102290;-73
2023/03/29 02:34:48;;;;;;;18.40;7.90;;;;;;;0.27;67.88;100313.37;124321;1099;102524;-72
2023/03/29 02:37:23;;;;;;;18.33;8.10;;;;;;;0.29;68.39;100326.39;124303;1099;104232;-72
2023/03/29 02:39:55;;;;;;;17.60;7.73;;;;;;;0.26;68.62;100305.52;124281;1100;104169;-73
2023/03/29 02:42:27;;;;;;;17.60;7.87;;;;;;;0.27;68.34;100320.22;124359;1099;102221;-73
2023/03/29 02:45:01;;;;;;;18.03;8.43;;;;;;;0.26;68.60;100321.88;124274;1099;104280;-72
2023/03/29 02:47:37;;;;;;;18.23;8.53;;;;;;;0.26;68.33;100321.88;124735;1099;104242;-73
2023/03/29 02:50:10;;;;;;;17.17;7.87;;;;;;;0.24;68.68;100332.90;124757;1099;104370;-73
2023/03/29 02:52:47;;;;;;;19.25;8.23;;;;;;;0.24;68.81;100336.37;124857;1099;104246;-73
2023/03/29 02:55:21;;;;;;;16.70;7.75;;;;;;;0.22;68.99;100335.37;124684;1099;104370;-73
2023/03/29 02:57:51;;;;;;;;;;;;;;;0.19;69.49;100348.05;124795;1099;104242;-74
2023/03/29 03:00:22;;;;;;;16.83;6.50;;;;;;;0.15;69.90;100349.47;124755;1099;102347;-73
2023/03/29 03:02:55;;;;;;;16.60;7.60;;;;;;;0.18;69.09;100343.66;124737;1098;104223;-73
2023/03/29 03:05:26;;;;;;;15.03;6.53;;;;;;;0.16;68.97;100346.13;124312;1099;104271;-73
2023/03/29 03:07:58;;;;;;;16.43;7.83;;;;;;;0.17;69.48;100344.42;124731;1099;104245;-73
2023/03/29 03:10:29;;;;;;;14.73;6.80;;;;;;;0.15;69.32;100346.89;124549;1099;104237;-73
2023/03/29 03:13:02;;;;;;;16.57;7.00;;;;;;;0.12;69.10;100349.24;124704;1099;104188;-72
2023/03/29 03:15:35;;;;;;;15.97;6.97;;;;;;;0.12;69.42;100363.84;124663;1099;104265;-74
2023/03/29 03:18:07;;;;;;;14.87;6.97;;;;;;;0.11;69.30;100360.38;124797;1099;104242;-73
2023/03/29 03:20:38;;;;;;;17.40;7.30;;;;;;;0.09;69.47;100366.19;124807;1098;101958;-73
2023/03/29 03:23:10;;;;;;;15.80;7.43;;;;;;;0.08;69.85;100367.88;124706;1099;103955;-73
2023/03/29 03:25:42;;;;;;;14.50;7.23;;;;;;;0.09;68.73;100368.77;124761;1098;102312;-73
2023/03/29 03:28:13;;;;;;;19.37;7.93;;;;;;;0.05;69.21;100361.57;124753;1099;104344;-73
2023/03/29 03:30:44;;;;;;;18.05;7.30;;;;;;;0.04;69.22;100358.10;124736;1099;104245;-72
2023/03/29 03:33:45;;;;;;;16.57;6.90;;;;;;;0.03;69.12;100370.89;124626;1099;104246;-74
2023/03/29 03:36:42;;;;;;;15.67;7.07;;;;;;;0.01;69.15;100375.05;124285;1099;104248;-73
2023/03/29 03:39:16;;;;;;;18.27;7.47;;;;;;;-0.01;68.71;100357.75;124277;1099;104262;-74
2023/03/29 03:41:47;;;;;;;17.70;7.60;;;;;;;-0.03;68.92;100369.65;124736;1099;111695;-74
2023/03/29 03:44:21;;;;;;;17.40;7.93;;;;;;;-0.05;69.19;100366.06;124355;1099;104230;-73
2023/03/29 03:46:59;;;;;;;17.70;7.80;;;;;;;-0.08;69.48;100370.99;124367;1099;104301;-74
2023/03/29 03:49:31;;;;;;;16.83;7.00;;;;;;;-0.10;69.87;100367.38;124732;1099;104338;-73
2023/03/29 03:52:02;;;;;;;17.60;7.70;;;;;;;-0.08;69.50;100370.07;124647;1099;104267;-74
2023/03/29 03:54:33;;;;;;;18.50;7.80;;;;;;;-0.09;69.54;100376.92;124336;1099;101876;-74
2023/03/29 03:57:36;;;;;;;16.77;7.60;;;;;;;-0.09;69.42;100373.45;124844;1099;104210;-74
2023/03/29 04:00:17;;;;;;;16.20;7.70;;;;;;;-0.09;69.19;100379.50;124689;1099;105434;-74
2023/03/29 04:02:50;;;;;;;14.00;6.77;;;;;;;-0.08;69.78;100389.05;124698;1098;104242;-74
2023/03/29 04:05:22;;;;;;;16.33;7.10;;;;;;;-0.08;68.90;100388.12;124364;1099;104204;-74
2023/03/29 04:07:54;;;;;;;19.67;7.37;;;;;;;-0.08;69.58;100396.79;124348;1099;104227;-73
2023/03/29 04:10:53;;;;;;;17.77;7.73;;;;;;;-0.10;69.43;100405.17;124815;1099;104629;-74
2023/03/29 04:13:29;;;;;;;17.83;7.73;;;;;;;-0.10;69.05;100403.48;124392;1102;104643;-73
2023/03/29 04:16:24;;;;;;;15.25;6.55;;;;;;;-0.11;69.87;100417.19;124777;1099;104190;-73
2023/03/29 04:18:55;;;;;;;16.07;7.33;;;;;;;-0.09;69.39;100420.77;124560;1099;104217;-71
2023/03/29 04:21:27;;;;;;;18.23;7.33;;;;;;;-0.07;69.45;100421.78;124475;1099;102420;-73
2023/03/29 04:23:58;;;;;;;15.40;6.70;;;;;;;-0.06;69.23;100430.44;124373;1099;104162;-75
2023/03/29 04:26:29;;;;;;;17.20;7.30;;;;;;;-0.05;68.99;100425.40;124472;1099;104323;-74
2023/03/29 04:29:08;;;;;;;19.50;7.60;;;;;;;-0.04;68.84;100427.17;124860;1099;104283;-74
2023/03/29 04:31:45;;;;;;;13.60;6.90;;;;;;;-0.03;68.86;100418.66;124396;1100;104368;-74
2023/03/29 04:34:31;;;;;;;12.93;5.73;;;;;;;-0.03;68.88;100426.41;124626;1099;101963;-74
2023/03/29 04:37:09;;;;;;;16.20;7.20;;;;;;;0.05;68.69;100416.67;124675;1099;104233;-73
2023/03/29 04:39:41;;;;;;;15.43;7.13;;;;;;;0.10;68.08;100407.59;124795;1099;102013;-74
2023/03/29 04:42:12;;;;;;;15.30;6.63;;;;;;;0.13;68.09;100412.98;124445;1099;104239;-74
2023/03/29 04:44:45;;;;;;;14.63;6.30;;;;;;;0.18;68.09;100426.23;124614;1099;102950;-73
2023/03/29 04:47:18;;;;;;;13.05;6.50;;;;;;;0.26;68.31;100421.66;124499;1099;101907;-73
2023/03/29 04:50:05;;;;;;;13.93;6.57;;;;;;;0.29;68.07;100429.63;124537;1099;104261;-72
2023/03/29 04:52:44;;;;;;;14.97;6.33;;;;;;;0.33;67.04;100431.66;124478;1099;104291;-73
2023/03/29 04:55:16;;;;;;;12.90;6.45;;;;;;;0.37;67.60;100432.78;124882;1099;104264;-77
2023/03/29 04:57:59;;;;;;;18.73;6.87;;;;;;;0.43;67.43;100443.57;124722;1099;102059;-75
2023/03/29 05:00:37;;;;;;;13.10;6.70;;;;;;;0.48;67.60;100437.98;124588;1099;105786;-76
2023/03/29 05:03:10;;;;;;;13.67;6.47;;;;;;;0.54;67.01;100443.57;124775;1099;102324;-73
2023/03/29 05:05:43;;;;;;;15.67;6.90;;;;;;;0.61;66.82;100444.03;124747;1099;104367;-71
2023/03/29 05:08:15;;;;;;;13.90;6.77;;;;;;;0.65;66.81;100441.79;124469;1099;103947;-75
2023/03/29 05:11:16;;;;;;;15.23;6.50;;;;;;;0.68;66.11;100441.13;125062;1099;101990;-75
2023/03/29 05:13:48;;;;;;;17.53;6.80;;;;;;;0.75;66.00;100443.39;124721;1099;104242;-76
2023/03/29 05:16:20;;;;;;;15.60;6.87;;;;;;;0.80;65.99;100448.89;124859;1099;104245;-75
2023/03/29 05:18:54;;;;;;;15.47;6.10;;;;;;;0.87;66.71;100433.96;124823;1099;103210;-74
2023/03/29 05:21:24;;;;;;;;;;;;;;;0.79;64.92;100413.51;124992;1099;104614;-76
2023/03/29 05:23:56;;;;;;;13.43;5.67;;;;;;;0.95;65.19;100456.86;124729;1098;102669;-73
2023/03/29 05:26:50;;;;;;;15.57;6.00;;;;;;;1.01;64.57;100455.64;125101;1099;102599;-74
2023/03/29 05:29:22;;;;;;;14.57;6.17;;;;;;;1.07;64.31;100444.83;124616;1099;103450;-73
2023/03/29 05:31:59;;;;;;;13.47;6.10;;;;;;;1.12;63.52;100458.09;124743;1099;102782;-73
2023/03/29 05:34:30;;;;;;;16.50;6.30;;;;;;;1.13;62.88;100460.78;125327;1099;104163;-72
2023/03/29 05:37:03;;;;;;;12.63;6.00;;;;;;;1.17;62.75;100455.06;125007;1099;104204;-74
2023/03/29 05:39:41;;;;;;;12.73;5.63;;;;;;;1.23;61.78;100468.43;124982;1099;102035;-73
2023/03/29 05:42:14;;;;;;;11.20;5.60;;;;;;;1.26;63.08;100454.80;124830;1099;103576;-73
2023/03/29 05:44:53;;;;;;;11.73;5.43;;;;;;;1.32;62.35;100475.04;125157;1099;102913;-75
2023/03/29 05:47:24;;;;;;;12.47;5.50;;;;;;;1.30;62.35;100461.12;124097;1099;101757;-72
2023/03/29 05:49:56;;;;;;;13.40;5.93;;;;;;;1.31;61.29;100479.33;124399;1100;103375;-74
2023/03/29 05:52:28;;;;;;;11.17;5.77;;;;;;;1.39;60.88;100480.77;124926;1099;104248;-75
2023/03/29 05:55:04;;;;;;;13.93;5.83;;;;;;;1.45;61.38;100464.80;124929;1099;104159;-75
2023/03/29 05:57:38;;;;;;;13.10;5.57;;;;;;;1.46;60.53;100494.14;125131;1100;104345;-72
2023/03/29 06:00:22;;;;;;;12.10;6.10;;;;;;;1.43;60.41;100477.63;124201;1099;103742;-74
2023/03/29 06:02:56;;;;;;;11.53;5.80;;;;;;;1.50;60.75;100475.48;124245;1099;105138;-71
2023/03/29 06:05:28;;;;;;;15.40;5.93;;;;;;;1.57;60.35;100488.95;124267;1099;104372;-72
2023/03/29 06:08:03;;;;;;;14.60;5.93;;;;;;;1.66;60.93;100475.76;124368;1099;102239;-75
2023/03/29 06:10:57;;;;;;;13.10;5.83;;;;;;;1.75;60.05;100493.63;124328;1102;104268;-71
2023/03/29 06:13:49;;;;;;;15.90;5.80;;;;;;;1.74;59.20;100491.83;124563;1099;102258;-72
2023/03/29 06:16:22;;;;;;;14.27;5.90;;;;;;;1.72;59.38;100496.89;124012;1102;104162;-71
2023/03/29 06:18:54;;;;;;;15.78;5.67;;;;;;;1.84;59.04;100508.89;124556;1099;104336;-72
2023/03/29 06:21:27;;;;;;;15.67;6.30;;;;;;;1.89;59.03;100502.37;124389;1099;104338;-73
2023/03/29 06:23:59;;;;;;;15.67;6.50;;;;;;;1.98;58.94;100501.31;124216;1099;102286;-72
2023/03/29 06:26:34;;;;;;;14.58;5.50;;;;;;;2.05;57.58;100499.16;124122;1099;101986;-71
2023/03/29 06:29:05;;;;;;;11.87;5.70;;;;;;;2.06;58.42;100507.03;126172;1099;103488;-70
2023/03/29 06:31:37;;;;;;;14.63;5.37;;;;;;;2.13;57.85;100501.46;124267;1099;102079;-72
2023/03/29 06:34:08;;;;;;;13.83;4.90;;;;;;;2.13;56.10;100500.58;124585;1099;101920;-71
2023/03/29 06:36:57;;;;;;;9.97;4.47;;;;;;;2.17;56.36;100502.59;124258;1099;104243;-71
2023/03/29 06:39:28;;;;;;;11.40;4.50;;;;;;;2.13;55.71;100506.64;124207;1098;101926;-71
2023/03/29 06:42:20;;;;;;;11.40;4.27;;;;;;;2.22;55.77;100518.45;124561;1099;101905;-71
2023/03/29 06:45:11;;;;;;;10.87;4.37;;;;;;;2.36;55.15;100522.88;124248;1099;104179;-71
2023/03/29 06:47:47;;;;;;;12.70;5.00;;;;;;;2.53;56.15;100499.84;124287;1099;101911;-71
2023/03/29 06:50:22;;;;;;;8.77;4.80;;;;;;;2.50;54.12;100536.78;124315;1099;102471;-73
2023/03/29 06:53:12;;;;;;;12.03;5.53;;;;;;;2.56;54.84;100523.36;124841;1099;104344;-72
2023/03/29 06:55:44;;;;;;;6.67;3.70;;;;;;;2.49;53.60;100546.25;124235;1099;101984;-71
2023/03/29 06:58:34;;;;;;;9.67;4.67;;;;;;;2.46;53.60;100545.13;124627;1099;104274;-73
2023/03/29 07:01:15;;;;;;;14.80;6.07;;;;;;;2.53;54.05;100536.98;124266;1099;104383;-73
2023/03/29 07:03:55;;;;;;;10.33;5.20;;;;;;;2.56;52.96;100546.67;124223;1099;104238;-71
2023/03/29 07:06:32;;;;;;;13.20;5.30;;;;;;;2.59;53.49;100554.66;124237;1099;104271;-72
2023/03/29 07:09:05;;;;;;;11.63;5.10;;;;;;;2.57;52.86;100558.81;124276;1099;104242;-70
2023/03/29 07:11:57;;;;;;;12.87;4.90;;;;;;;2.72;52.18;100549.50;124553;1099;104245;-70
2023/03/29 07:14:30;;;;;;;10.45;5.17;;;;;;;2.86;50.80;100553.02;124144;1099;104236;-70
2023/03/29 07:17:06;;;;;;;9.23;4.70;;;;;;;2.79;51.12;100538.76;124154;1101;104808;-69
2023/03/29 07:19:40;;;;;;;13.83;5.50;;;;;;;3.06;52.00;100554.36;124135;1099;104242;-72
2023/03/29 07:22:34;;;;;;;11.95;5.30;;;;;;;3.13;53.15;100556.57;124568;1099;104201;-73
2023/03/29 07:25:09;;;;;;;11.20;5.03;;;;;;;3.13;52.98;100563.43;125266;1099;102956;-76
2023/03/29 07:27:42;;;;;;;14.03;6.17;;;;;;;3.01;52.21;100577.38;125311;1099;102754;-74
2023/03/29 07:30:16;;;;;;;10.67;4.83;;;;;;;2.78;52.50;100577.53;125176;1099;103286;-74
2023/03/29 07:32:49;;;;;;;12.77;6.00;;;;;;;2.73;52.92;100574.62;125459;1099;104166;-70
2023/03/29 07:35:34;;;;;;;13.30;5.10;;;;;;;2.69;52.54;100580.38;124593;1099;102308;-75
2023/03/29 07:38:07;;;;;;;9.67;4.70;;;;;;;2.69;50.29;100576.08;124185;1099;104252;-71
2023/03/29 07:40:38;;;;;;;9.97;5.00;;;;;;;2.92;51.28;100568.98;124484;1099;101806;-70
2023/03/29 07:43:29;;;;;;;12.30;4.80;;;;;;;3.26;49.69;100578.09;124687;1099;104175;-71
2023/03/29 07:46:05;;;;;;;10.97;5.13;;;;;;;3.45;49.71;100573.34;124432;1099;104246;-71
2023/03/29 07:48:40;;;;;;;10.97;4.57;;;;;;;3.52;49.38;100559.98;124309;1099;104242;-73
2023/03/29 07:51:25;;;;;;;11.37;4.83;;;;;;;3.50;49.38;100576.23;124370;1099;104361;-72
2023/03/29 07:54:07;;;;;;;8.60;4.70;;;;;;;3.52;49.63;100585.00;124157;1100;102144;-69
2023/03/29 07:56:50;;;;;;;10.03;4.17;;;;;;;3.54;46.57;100584.31;124657;1099;104276;-72
2023/03/29 07:59:38;;;;;;;10.60;5.03;;;;;;;3.55;46.32;100582.61;124206;1099;104208;-71
2023/03/29 08:02:18;;;;;;;9.37;4.30;;;;;;;3.47;48.71;100569.13;124773;1099;104197;-71
2023/03/29 08:04:55;;;;;;;9.37;4.37;;;;;;;3.48;45.92;100583.91;124669;1099;103349;-70
2023/03/29 08:07:46;;;;;;;6.70;4.00;;;;;;;3.53;47.36;100577.31;124232;1099;104254;-72
2023/03/29 08:10:33;;;;;;;6.27;3.17;;;;;;;3.41;47.30;100579.11;124587;1099;104360;-72
2023/03/29 08:13:17;;;;;;;8.83;3.40;;;;;;;3.22;44.09;100592.56;124652;1099;104363;-71
2023/03/29 08:15:55;;;;;;;6.70;3.20;;;;;;;3.23;45.93;100584.89;124216;1099;102845;-73
2023/03/29 08:18:31;;;;;;;7.00;3.37;;;;;;;3.29;44.40;100589.59;124207;1099;104291;-70
2023/03/29 08:21:03;;;;;;;6.10;3.47;;;;;;;3.54;45.65;100589.50;124616;1099;104712;-73
2023/03/29 08:23:38;;;;;;;7.17;3.93;;;;;;;3.76;43.53;100568.42;124597;1099;102333;-71
2023/03/29 08:26:24;;;;;;;9.80;4.63;;;;;;;3.96;43.43;100576.59;124207;1099;104258;-71
2023/03/29 08:28:56;;;;;;;5.60;3.20;;;;;;;3.90;41.53;100579.69;125075;1099;104152;-71
2023/03/29 08:31:28;;;;;;;6.60;3.17;;;;;;;3.99;45.33;100571.59;124324;1099;104306;-75
2023/03/29 08:34:04;;;;;;;8.03;3.10;;;;;;;3.89;42.38;100585.67;124671;1099;103821;-72
2023/03/29 08:36:59;;;;;;;8.13;3.60;;;;;;;3.82;43.10;100591.29;124724;1099;102517;-74
2023/03/29 08:39:40;;;;;;;7.20;3.10;;;;;;;3.89;40.37;100584.78;124218;1099;104304;-72
2023/03/29 08:42:56;;;;;;;10.77;3.13;;;;;;;3.98;41.94;100592.27;124434;1099;101835;-72
2023/03/29 08:45:41;;;;;;;5.47;3.00;;;;;;;4.02;42.68;100573.47;124683;1099;104363;-73
2023/03/29 08:48:31;;;;;;;8.07;2.90;;;;;;;3.91;41.36;100599.67;124695;1099;104274;-73
2023/03/29 08:51:11;;;;;;;4.23;2.50;;;;;;;3.86;40.77;100598.45;124249;1099;104334;-73
2023/03/29 08:53:46;;;;;;;8.87;2.30;;;;;;;3.67;39.08;100603.28;124169;1099;104310;-71
2023/03/29 08:56:27;;;;;;;4.17;2.57;;;;;;;3.82;40.89;100595.56;124621;1099;104050;-72
2023/03/29 08:59:24;;;;;;;5.93;3.30;;;;;;;3.77;39.56;100601.38;124696;1099;104259;-73
2023/03/29 09:01:58;;;;;;;4.97;2.70;;;;;;;3.86;41.41;100605.36;124280;1099;101911;-74
2023/03/29 09:04:31;;;;;;;7.50;2.90;;;;;;;3.86;41.89;100603.64;124316;1099;104207;-74
2023/03/29 09:07:15;;;;;;;3.07;2.00;;;;;;;3.87;39.51;100602.86;125938;1098;104304;-73
2023/03/29 09:09:50;;;;;;;6.60;3.07;;;;;;;3.91;40.12;100607.45;124235;1099;104305;-73
2023/03/29 09:12:44;;;;;;;7.67;3.10;;;;;;;3.78;39.83;100605.75;124469;1099;104188;-76
2023/03/29 09:15:19;;;;;;;5.73;3.10;;;;;;;3.72;40.08;100620.92;124258;1102;104112;-75
2023/03/29 09:18:08;;;;;;;4.10;2.80;;;;;;;3.69;40.11;100614.64;124791;1099;102223;-76
2023/03/29 09:20:55;;;;;;;5.67;2.80;;;;;;;3.68;41.26;100628.45;125742;1099;104137;-74
2023/03/29 09:23:50;;;;;;;5.80;3.27;;;;;;;3.78;41.20;100610.05;125636;1098;101732;-74
2023/03/29 09:26:53;;;;;;;7.50;2.90;;;;;;;3.74;40.46;100634.00;124718;1099;104198;-74
2023/03/29 09:30:09;;;;;;;5.83;2.67;;;;;;;3.60;39.86;100634.02;125982;1098;102016;-74
2023/03/29 09:32:56;;;;;;;7.20;3.00;;;;;;;3.81;40.74;100624.94;124724;1099;104278;-73
2023/03/29 09:35:42;;;;;;;6.57;3.30;;;;;;;4.08;40.44;100655.28;124820;1099;104230;-75
2023/03/29 09:38:18;;;;;;;4.13;2.17;;;;;;;4.01;39.19;100634.90;125218;1099;101859;-75
2023/03/29 09:41:02;;;;;;;9.23;2.90;;;;;;;3.93;39.22;100638.71;124790;1099;104329;-74
2023/03/29 09:43:37;;;;;;;4.30;2.20;;;;;;;3.74;38.85;100645.30;124743;1097;104329;-73
2023/03/29 09:46:20;;;;;;;6.57;3.10;;;;;;;3.88;39.78;100646.20;124729;1099;104220;-73
2023/03/29 09:48:53;;;;;;;3.27;2.60;;;;;;;3.93;39.63;100642.20;124300;1099;104402;-73
2023/03/29 09:51:33;;;;;;;6.35;3.10;;;;;;;3.88;39.91;100640.09;124188;1099;104440;-72
2023/03/29 09:54:12;;;;;;;6.20;2.90;;;;;;;3.86;40.47;100634.80;124913;1099;102251;-77
2023/03/29 09:57:09;;;;;;;5.80;2.80;;;;;;;3.85;40.65;100638.22;124743;1098;102000;-77
2023/03/29 09:59:41;;;;;;;5.70;2.77;;;;;;;3.83;39.63;100655.37;124804;1099;104380;-72
2023/03/29 10:02:14;;;;;;;3.63;2.37;;;;;;;3.63;39.43;100667.06;124398;1098;102036;-73
2023/03/29 10:04:59;;;;;;;8.30;3.45;;;;;;;3.81;40.38;100650.89;124298;1099;104176;-73
2023/03/29 10:07:47;;;;;;;6.13;2.60;;;;;;;3.91;39.16;100649.00;124395;1099;104169;-75
2023/03/29 10:10:44;;;;;;;7.03;2.70;;;;;;;4.04;39.96;100636.80;124859;1099;104278;-73
2023/03/29 10:13:22;;;;;;;6.43;2.90;;;;;;;4.07;37.86;100650.87;124839;1099;104289;-74
2023/03/29 10:16:03;;;;;;;5.07;3.00;;;;;;;4.08;37.97;100646.56;124789;1098;104060;-73
2023/03/29 10:18:40;;;;;;;6.73;2.80;;;;;;;4.06;38.89;100645.58;124633;1099;104281;-71
2023/03/29 10:21:15;;;;;;;7.37;2.90;;;;;;;3.94;39.32;100648.27;124664;1099;104274;-73
2023/03/29 10:23:50;;;;;;;6.57;3.10;;;;;;;3.93;39.43;100657.77;124759;1098;104236;-74
2023/03/29 10:26:28;;;;;;;5.60;2.83;;;;;;;3.77;39.49;100660.16;124798;1099;102817;-75
2023/03/29 10:29:03;;;;;;;7.83;3.20;;;;;;;3.66;40.69;100658.56;124900;1099;104326;-74
2023/03/29 10:31:40;;;;;;;6.73;2.90;;;;;;;3.56;41.01;100655.36;124316;1099;104201;-74
2023/03/29 10:34:17;;;;;;;5.77;3.50;;;;;;;3.40;42.08;100663.83;124687;1099;104338;-74
2023/03/29 10:36:56;;;;;;;7.97;3.30;;;;;;;3.32;41.88;100666.69;124735;1099;104169;-75
2023/03/29 10:39:33;;;;;;;7.07;3.00;;;;;;;3.27;41.96;100675.87;124761;1099;102009;-73
2023/03/29 10:42:07;;;;;;;4.90;2.93;;;;;;;3.22;41.14;100676.44;124396;1099;102045;-74
2023/03/29 10:44:39;;;;;;;6.58;3.10;;;;;;;3.51;41.21;100661.06;124739;1099;104268;-72
2023/03/29 10:47:19;;;;;;;6.60;3.00;;;;;;;3.69;40.33;100677.81;125204;1099;104262;-71
2023/03/29 10:49:54;;;;;;;5.47;3.20;;;;;;;3.77;39.79;100675.73;124553;1099;104251;-74
2023/03/29 10:52:29;;;;;;;5.43;3.20;;;;;;;4.00;40.09;100663.36;124964;1099;102119;-77
2023/03/29 10:55:03;;;;;;;8.03;3.70;;;;;;;4.16;40.27;100657.45;124482;1099;102506;-75
2023/03/29 10:57:52;;;;;;;5.95;3.60;;;;;;;4.32;40.78;100655.03;124340;1099;104239;-76
2023/03/29 11:00:32;;;;;;;8.70;3.40;;;;;;;4.42;40.62;100651.31;124679;1099;104341;-75
2023/03/29 11:03:23;;;;;;;7.67;2.83;;;;;;;4.32;39.00;100655.92;124721;1099;104268;-73
2023/03/29 11:06:07;;;;;;;5.73;2.90;;;;;;;4.29;39.63;100663.52;124691;1099;104412;-77
2023/03/29 11:08:50;;;;;;;7.07;2.93;;;;;;;4.07;39.54;100675.95;124745;1099;104182;-75
2023/03/29 11:11:57;;;;;;;9.03;2.87;;;;;;;3.94;40.04;100664.78;124506;1099;104236;-73
2023/03/29 11:14:41;;;;;;;7.43;2.90;;;;;;;3.92;40.99;100679.33;124725;1099;104268;-77
2023/03/29 11:17:27;;;;;;;7.73;3.23;;;;;;;3.85;41.15;100684.94;124730;1099;101837;-75
2023/03/29 11:20:13;;;;;;;8.07;3.60;;;;;;;3.88;41.21;100679.03;124417;1099;101959;-75
2023/03/29 11:22:53;;;;;;;5.17;2.87;;;;;;;3.74;40.49;100671.26;124762;1098;104166;-73
2023/03/29 11:25:42;;;;;;;6.30;3.30;;;;;;;3.75;41.26;100667.84;124752;1099;104316;-75
2023/03/29 11:28:19;;;;;;;5.03;3.17;;;;;;;3.83;40.88;100676.13;124841;1099;104203;-75
2023/03/29 11:30:57;;;;;;;9.57;3.17;;;;;;;3.86;41.15;100670.25;124402;1099;104296;-77
2023/03/29 11:33:49;;;;;;;5.83;3.00;;;;;;;3.91;40.64;100668.84;124860;1099;104207;-73
2023/03/29 11:36:30;;;;;;;6.67;2.97;;;;;;;3.79;41.36;100676.75;124743;1099;104207;-74
2023/03/29 11:39:13;;;;;;;5.93;3.37;;;;;;;3.84;41.00;100672.75;124233;1099;104169;-73
2023/03/29 11:41:50;;;;;;;5.67;3.20;;;;;;;4.06;42.10;100658.56;124783;1098;104182;-74
2023/03/29 11:44:31;;;;;;;5.20;3.47;;;;;;;4.15;42.19;100664.35;124727;1099;101839;-74
2023/03/29 11:47:07;;;;;;;15.87;5.20;;;;;;;4.27;42.19;100661.62;124233;1099;104350;-74
2023/03/29 11:49:44;;;;;;;7.33;3.07;;;;;;;4.40;41.47;100655.52;124180;1099;104363;-76
2023/03/29 11:52:21;;;;;;;10.40;3.33;;;;;;;4.51;41.14;100659.68;124189;1099;104198;-73
2023/03/29 11:54:57;;;;;;;5.20;2.90;;;;;;;4.56;41.23;100655.66;124606;1099;104300;-73
2023/03/29 11:57:32;;;;;;;6.30;3.00;;;;;;;4.51;41.39;100654.48;124686;1099;101964;-75
2023/03/29 12:00:08;;;;;;;4.83;3.03;;;;;;;4.41;39.86;100662.49;124639;1099;104197;-73
2023/03/29 12:03:16;;;;;;;5.40;2.87;;;;;;;4.24;40.67;100654.55;124672;1099;108378;-73